Ar Rayyan, Qatar
Current Conditions -  °F | °C
As of 10:58 AM on Friday 28 Nov 2014 (Local Time) from KQIR Reporting Station
Few Clouds Few Clouds  
Wind Chill: 80°   Ceiling: Unl
Heat Index: 80°   Visibility: 6mi
Dew Point: 54°   Wind: 5mph
Humidity: 40%   Direction: 10°N
Pressure: 30.01"   Gusts: NA
Location:  25.32°N, 51.37°E
Report Text: KQIR 280758Z 01004KT 9999 FEW100 27/12 A3001 RMK AO2A SLP164 T02680123
Loading
Personal Weather Stations






























Interactive Weather Map New forecast layout! Learn more

10-Day Weather Forecast

Advertisements
Track Severe Weather on mobile